createdAt,value
2023-05-20T00:01:38.779Z,16.80
2023-05-20T00:11:44.698Z,17.70
2023-05-20T00:21:50.523Z,15.50
2023-05-20T00:31:56.193Z,16.80
2023-05-20T00:42:03.605Z,16.50
2023-05-20T00:52:10.985Z,17.60
2023-05-20T01:02:17.197Z,16.00
2023-05-20T01:12:28.288Z,17.10
2023-05-20T01:22:33.938Z,17.60
2023-05-20T01:32:44.927Z,21.00
2023-05-20T01:42:53.651Z,20.70
2023-05-20T01:52:59.528Z,18.50
2023-05-20T02:03:05.425Z,22.10
2023-05-20T02:13:11.175Z,19.20
2023-05-20T02:23:16.971Z,19.90
2023-05-20T02:33:23.573Z,23.70
2023-05-20T02:43:29.251Z,23.50
2023-05-20T02:53:34.980Z,21.30
2023-05-20T03:03:40.870Z,23.40
2023-05-20T03:13:46.795Z,23.20
2023-05-20T03:23:52.686Z,24.50
2023-05-20T03:33:58.447Z,21.30
2023-05-20T03:44:04.286Z,20.90
2023-05-20T03:54:10.154Z,18.20
2023-05-20T04:04:15.928Z,18.80
2023-05-20T04:14:22.013Z,18.90
2023-05-20T04:24:28.062Z,18.90
2023-05-20T04:34:35.335Z,16.30
2023-05-20T04:44:42.363Z,18.40
2023-05-20T04:54:48.417Z,16.20
2023-05-20T05:04:54.465Z,15.50
2023-05-20T05:15:00.434Z,15.60
2023-05-20T05:25:06.816Z,14.10
2023-05-20T05:35:13.182Z,15.70
2023-05-20T05:45:18.938Z,15.10
2023-05-20T05:55:24.950Z,14.50
2023-05-20T06:05:32.108Z,13.70
2023-05-20T06:15:38.085Z,13.20
2023-05-20T06:25:43.829Z,11.60
2023-05-20T06:35:50.025Z,9.90
2023-05-20T06:45:56.062Z,11.60
2023-05-20T06:56:02.208Z,10.00
2023-05-20T07:06:08.055Z,10.90
2023-05-20T07:16:13.733Z,9.80
2023-05-20T07:26:19.517Z,10.50
2023-05-20T07:36:25.445Z,9.60
2023-05-20T07:46:31.688Z,9.70
2023-05-20T07:56:37.575Z,9.60
2023-05-20T08:06:44.643Z,9.60
2023-05-20T08:16:52.269Z,10.80
2023-05-20T08:26:59.650Z,9.90
2023-05-20T08:37:05.689Z,8.30
2023-05-20T08:47:12.022Z,9.00
2023-05-20T08:57:17.973Z,9.50
2023-05-20T09:07:30.537Z,9.90
2023-05-20T09:17:38.535Z,10.80
2023-05-20T09:27:44.404Z,10.60
2023-05-20T09:37:52.864Z,10.40
2023-05-20T09:48:00.856Z,10.10
2023-05-20T09:58:06.992Z,11.00
2023-05-20T10:08:37.537Z,10.70
2023-05-20T10:18:56.336Z,11.30
2023-05-20T10:29:02.325Z,11.20
2023-05-20T10:39:08.263Z,10.20
2023-05-20T10:49:25.007Z,10.30
2023-05-20T10:59:33.494Z,10.80
2023-05-20T11:09:40.058Z,11.00
2023-05-20T11:19:46.360Z,11.10
2023-05-20T11:29:53.573Z,10.70
2023-05-20T11:40:09.802Z,10.10
2023-05-20T11:50:19.693Z,10.30
2023-05-20T12:00:29.158Z,9.20
2023-05-20T12:10:38.111Z,10.10
2023-05-20T12:20:43.873Z,10.40
2023-05-20T12:30:49.573Z,11.10
2023-05-20T12:40:55.352Z,10.40
2023-05-20T12:51:01.581Z,9.00
2023-05-20T13:01:07.375Z,9.20
2023-05-20T13:11:13.240Z,9.30
2023-05-20T13:21:19.226Z,8.50
2023-05-20T13:31:25.828Z,8.00
2023-05-20T13:41:31.759Z,8.80
2023-05-20T13:51:37.444Z,8.30
2023-05-20T14:01:45.648Z,8.50
2023-05-20T14:11:52.216Z,7.90
2023-05-20T14:21:59.010Z,7.30
2023-05-20T14:32:05.266Z,7.60
2023-05-20T14:42:11.105Z,7.60
2023-05-20T14:52:17.142Z,7.60
2023-05-20T15:02:23.028Z,8.10
2023-05-20T15:12:28.949Z,8.10
2023-05-20T15:22:34.986Z,6.90
2023-05-20T15:32:41.491Z,6.80
2023-05-20T15:42:47.616Z,6.50
2023-05-20T15:52:54.138Z,6.70
2023-05-20T16:02:59.970Z,6.50
2023-05-20T16:13:06.262Z,7.10
2023-05-20T16:23:12.336Z,6.80
2023-05-20T16:33:18.555Z,7.20
2023-05-20T16:43:24.986Z,7.70
2023-05-20T16:53:30.823Z,7.00
2023-05-20T17:03:37.427Z,6.60
2023-05-20T17:13:43.278Z,6.20
2023-05-20T17:23:49.643Z,7.60
2023-05-20T17:33:55.459Z,6.00
2023-05-20T17:44:01.626Z,7.10
2023-05-20T17:54:07.654Z,7.90
2023-05-20T18:04:13.365Z,7.00
2023-05-20T18:14:22.754Z,8.10
2023-05-20T18:24:28.718Z,7.70
2023-05-20T18:34:34.728Z,8.60
2023-05-20T18:44:40.420Z,9.10
2023-05-20T18:54:46.111Z,9.60
2023-05-20T19:04:51.922Z,9.50
2023-05-20T19:14:58.221Z,9.60
2023-05-20T19:25:05.280Z,9.20
2023-05-20T19:35:11.935Z,8.70
2023-05-20T19:45:17.845Z,9.70
2023-05-20T19:55:23.999Z,11.40
2023-05-20T20:05:30.716Z,9.70
2023-05-20T20:15:37.048Z,10.00
2023-05-20T20:25:44.134Z,9.00
2023-05-20T20:35:50.593Z,9.60
2023-05-20T20:45:56.431Z,9.10
2023-05-20T20:56:02.254Z,10.40
2023-05-20T21:06:08.443Z,9.50
2023-05-20T21:16:14.784Z,9.60
2023-05-20T21:26:21.975Z,11.00
2023-05-20T21:36:27.765Z,10.50
2023-05-20T21:46:33.805Z,9.40
2023-05-20T21:56:40.203Z,9.30
2023-05-20T22:06:45.913Z,7.90
2023-05-20T22:16:51.824Z,6.90
2023-05-20T22:26:58.217Z,6.80
2023-05-20T22:37:04.285Z,6.30
2023-05-20T22:47:10.141Z,5.80
2023-05-20T22:57:17.137Z,5.80
2023-05-20T23:07:23.798Z,5.10
2023-05-20T23:17:29.809Z,5.10
2023-05-20T23:27:36.052Z,5.10
2023-05-20T23:37:42.254Z,5.30
2023-05-20T23:47:48.176Z,5.60
2023-05-20T23:57:53.967Z,5.30
